createdAt,value
2022-12-14T00:01:56.736Z,93.07
2022-12-14T00:04:42.805Z,95.55
2022-12-14T00:07:29.659Z,92.82
2022-12-14T00:10:15.682Z,92.90
2022-12-14T00:13:02.306Z,93.18
2022-12-14T00:15:48.396Z,83.72
2022-12-14T00:18:34.525Z,89.15
2022-12-14T00:21:21.401Z,88.82
2022-12-14T00:24:07.608Z,86.18
2022-12-14T00:26:53.636Z,77.32
2022-12-14T00:29:39.749Z,90.22
2022-12-14T00:32:25.794Z,91.22
2022-12-14T00:35:12.700Z,84.07
2022-12-14T00:37:58.684Z,82.68
2022-12-14T00:40:44.375Z,78.00
2022-12-14T00:43:30.598Z,74.78
2022-12-14T00:46:16.711Z,74.38
2022-12-14T00:49:02.892Z,69.55
2022-12-14T00:51:48.857Z,71.00
2022-12-14T00:54:34.776Z,71.85
2022-12-14T00:57:20.775Z,69.88
2022-12-14T01:00:07.430Z,71.35
2022-12-14T01:02:53.134Z,75.30
2022-12-14T01:05:39.382Z,78.45
2022-12-14T01:08:25.734Z,68.07
2022-12-14T01:11:11.990Z,73.95
2022-12-14T01:13:57.777Z,72.03
2022-12-14T01:16:43.954Z,70.60
2022-12-14T01:19:30.093Z,68.70
2022-12-14T01:22:16.225Z,71.20
2022-12-14T01:25:02.050Z,72.95
2022-12-14T01:27:47.748Z,77.90
2022-12-14T01:30:33.521Z,75.78
2022-12-14T01:33:19.132Z,69.50
2022-12-14T01:36:07.413Z,69.53
2022-12-14T01:38:55.389Z,69.75
2022-12-14T01:41:50.196Z,65.18
2022-12-14T01:44:36.180Z,64.82
2022-12-14T01:47:34.842Z,73.03
2022-12-14T01:50:28.701Z,73.30
2022-12-14T01:53:19.244Z,72.13
2022-12-14T01:56:05.643Z,71.03
2022-12-14T01:58:51.590Z,78.55
2022-12-14T02:01:37.664Z,78.40
2022-12-14T02:04:23.806Z,75.72
2022-12-14T02:07:10.433Z,78.72
2022-12-14T02:10:00.647Z,74.30
2022-12-14T02:12:50.130Z,77.43
2022-12-14T02:15:36.387Z,77.45
2022-12-14T02:18:25.017Z,76.15
2022-12-14T02:21:49.768Z,77.07
2022-12-14T02:25:07.161Z,79.32
2022-12-14T02:28:24.997Z,74.30
2022-12-14T02:31:37.531Z,86.15
2022-12-14T02:34:28.758Z,78.65
2022-12-14T02:37:25.804Z,91.28
2022-12-14T02:40:27.183Z,98.30
2022-12-14T02:43:24.373Z,84.43
2022-12-14T02:46:27.683Z,86.03
2022-12-14T02:49:41.634Z,80.97
2022-12-14T02:52:47.895Z,81.75
2022-12-14T02:55:38.826Z,88.55
2022-12-14T02:58:24.888Z,90.25
2022-12-14T03:01:15.132Z,88.60
2022-12-14T03:04:01.215Z,89.25
2022-12-14T03:07:03.201Z,93.07
2022-12-14T03:09:49.213Z,85.72
2022-12-14T03:12:37.285Z,98.72
2022-12-14T03:15:25.102Z,98.00
2022-12-14T03:18:14.483Z,99.20
2022-12-14T03:21:01.930Z,90.18
2022-12-14T03:23:49.157Z,90.70
2022-12-14T03:26:47.534Z,92.15
2022-12-14T03:29:41.369Z,90.82
2022-12-14T03:32:29.875Z,93.63
2022-12-14T03:35:26.568Z,94.95
2022-12-14T03:38:20.988Z,91.95
2022-12-14T03:41:48.987Z,83.55
2022-12-14T03:44:57.455Z,89.30
2022-12-14T03:48:31.465Z,93.32
2022-12-14T03:51:24.597Z,99.27
2022-12-14T03:54:17.398Z,99.60
2022-12-14T03:57:35.278Z,87.60
2022-12-14T04:00:23.562Z,87.07
2022-12-14T04:03:30.729Z,89.97
2022-12-14T04:06:32.740Z,90.85
2022-12-14T04:09:29.858Z,87.25
2022-12-14T04:12:51.688Z,92.93
2022-12-14T04:15:57.989Z,94.38
2022-12-14T04:18:59.871Z,88.65
2022-12-14T04:22:19.297Z,96.18
2022-12-14T04:25:28.924Z,87.30
2022-12-14T04:28:45.413Z,91.53
2022-12-14T04:31:32.689Z,91.70
2022-12-14T04:34:20.081Z,93.70
2022-12-14T04:37:09.929Z,94.10
2022-12-14T04:40:27.569Z,102.32
2022-12-14T04:43:20.513Z,152.52
2022-12-14T04:46:09.059Z,115.68
2022-12-14T04:49:13.797Z,112.85
2022-12-14T04:52:08.535Z,96.00
2022-12-14T04:55:12.643Z,98.78
2022-12-14T04:58:06.657Z,101.40
2022-12-14T05:04:22.065Z,94.35
2022-12-14T05:07:48.860Z,97.15
2022-12-14T05:10:51.964Z,89.18
2022-12-14T05:13:45.457Z,93.05
2022-12-14T05:16:36.556Z,91.70
2022-12-14T05:19:26.535Z,93.45
2022-12-14T05:22:12.683Z,92.07
2022-12-14T05:24:58.788Z,93.63
2022-12-14T05:27:44.484Z,105.20
2022-12-14T05:30:30.959Z,136.38
2022-12-14T05:33:21.959Z,128.07
2022-12-14T05:36:09.909Z,114.63
2022-12-14T05:38:55.592Z,113.10
2022-12-14T05:41:41.580Z,95.80
2022-12-14T05:44:27.576Z,86.95
2022-12-14T05:47:13.990Z,83.85
2022-12-14T05:50:00.119Z,91.97
2022-12-14T05:52:45.899Z,86.85
2022-12-14T05:55:31.591Z,80.50
2022-12-14T05:58:17.853Z,83.90
2022-12-14T06:01:18.580Z,75.65
2022-12-14T06:04:05.576Z,79.07
2022-12-14T06:06:51.769Z,76.20
2022-12-14T06:09:37.785Z,81.90
2022-12-14T06:12:23.789Z,78.13
2022-12-14T06:15:10.150Z,83.60
2022-12-14T06:17:56.132Z,90.25
2022-12-14T06:20:41.953Z,109.20
2022-12-14T06:23:28.104Z,98.72
2022-12-14T06:26:15.762Z,90.55
2022-12-14T06:29:02.160Z,93.93
2022-12-14T06:31:49.396Z,94.85
2022-12-14T06:34:39.872Z,90.85
2022-12-14T06:37:26.486Z,97.53
2022-12-14T06:40:12.588Z,87.18
2022-12-14T06:42:58.609Z,88.75
2022-12-14T06:45:44.348Z,103.93
2022-12-14T06:48:30.241Z,99.57
2022-12-14T06:51:16.241Z,103.53
2022-12-14T06:54:02.227Z,102.75
2022-12-14T06:56:48.073Z,105.10
2022-12-14T06:59:34.132Z,107.13
2022-12-14T07:02:20.983Z,99.18
2022-12-14T07:05:07.289Z,114.00
2022-12-14T07:07:53.176Z,112.80
2022-12-14T07:10:39.152Z,104.10
2022-12-14T07:13:25.360Z,97.43
2022-12-14T07:16:16.496Z,90.80
2022-12-14T07:19:02.403Z,100.03
2022-12-14T07:21:48.108Z,106.47
2022-12-14T07:24:33.778Z,106.10
2022-12-14T07:27:19.756Z,106.32
2022-12-14T07:30:06.523Z,102.00
2022-12-14T07:32:52.703Z,116.68
2022-12-14T07:35:38.593Z,118.68
2022-12-14T07:38:24.630Z,127.60
2022-12-14T07:41:18.925Z,123.47
2022-12-14T07:44:08.723Z,116.15
2022-12-14T07:46:54.617Z,122.60
2022-12-14T07:49:40.393Z,119.78
2022-12-14T07:52:26.239Z,133.98
2022-12-14T07:55:12.581Z,129.32
2022-12-14T07:58:00.841Z,119.55
2022-12-14T08:00:46.532Z,114.80
2022-12-14T08:03:32.668Z,110.82
2022-12-14T08:06:20.262Z,115.45
2022-12-14T08:09:07.438Z,107.32
2022-12-14T08:11:53.270Z,117.57
2022-12-14T08:14:38.963Z,116.60
2022-12-14T08:17:25.183Z,125.28
2022-12-14T08:20:12.660Z,111.03
2022-12-14T08:22:58.788Z,101.35
2022-12-14T08:25:45.187Z,113.15
2022-12-14T08:28:32.153Z,112.82
2022-12-14T08:31:20.680Z,112.45
2022-12-14T08:34:06.862Z,126.28
2022-12-14T08:36:52.903Z,124.90
2022-12-14T08:39:38.883Z,123.50
2022-12-14T08:42:24.643Z,120.85
2022-12-14T08:45:10.884Z,130.50
2022-12-14T08:48:00.514Z,139.75
2022-12-14T08:50:46.342Z,155.98
2022-12-14T08:53:37.321Z,128.75
2022-12-14T08:56:25.351Z,124.10
2022-12-14T08:59:30.032Z,123.57
2022-12-14T09:02:17.514Z,114.82
2022-12-14T09:05:03.862Z,154.55
2022-12-14T09:07:49.898Z,167.20
2022-12-14T09:10:43.499Z,218.77
2022-12-14T09:16:20.947Z,223.77
2022-12-14T09:19:07.365Z,198.40
2022-12-14T09:21:53.627Z,183.20
2022-12-14T09:24:39.730Z,147.10
2022-12-14T09:27:25.434Z,148.73
2022-12-14T09:30:11.376Z,152.95
2022-12-14T09:32:57.348Z,137.75
2022-12-14T09:35:43.224Z,133.38
2022-12-14T09:38:31.502Z,135.88
2022-12-14T09:41:35.630Z,170.43
2022-12-14T09:44:54.728Z,147.48
2022-12-14T09:47:58.649Z,167.00
2022-12-14T09:53:32.775Z,155.48
2022-12-14T09:56:20.948Z,197.25
2022-12-14T09:59:06.876Z,336.23
2022-12-14T10:02:29.152Z,166.48
2022-12-14T10:05:07.139Z,156.40
2022-12-14T10:08:23.838Z,155.18
2022-12-14T10:11:41.790Z,154.23
2022-12-14T10:14:48.083Z,152.15
2022-12-14T10:17:43.285Z,155.07
2022-12-14T10:20:43.747Z,165.10
2022-12-14T10:23:30.033Z,177.88
2022-12-14T10:26:19.055Z,179.65
2022-12-14T10:29:19.310Z,155.18
2022-12-14T10:32:21.378Z,136.50
2022-12-14T10:35:36.133Z,132.85
2022-12-14T10:38:29.706Z,130.80
2022-12-14T10:41:21.960Z,118.55
2022-12-14T10:44:34.909Z,126.47
2022-12-14T10:47:32.437Z,145.38
2022-12-14T10:50:43.707Z,150.68
2022-12-14T10:53:55.664Z,173.30
2022-12-14T10:56:43.114Z,180.35
2022-12-14T10:59:39.561Z,195.25
2022-12-14T11:02:30.111Z,202.98
2022-12-14T11:05:31.106Z,187.88
2022-12-14T11:08:41.925Z,185.55
2022-12-14T11:11:27.937Z,169.07
2022-12-14T11:14:15.965Z,161.20
2022-12-14T11:17:02.160Z,154.57
2022-12-14T11:20:09.967Z,165.38
2022-12-14T11:22:59.128Z,138.27
2022-12-14T11:25:46.348Z,154.15
2022-12-14T11:28:50.037Z,172.43
2022-12-14T11:34:29.333Z,148.63
2022-12-14T11:37:23.672Z,143.38
2022-12-14T11:40:27.661Z,173.52
2022-12-14T11:43:24.980Z,138.63
2022-12-14T11:46:10.836Z,125.70
2022-12-14T11:48:56.639Z,118.65
2022-12-14T11:52:01.160Z,110.35
2022-12-14T11:54:52.769Z,107.18
2022-12-14T11:57:51.747Z,113.35
2022-12-14T12:00:47.819Z,119.43
2022-12-14T12:03:45.681Z,120.28
2022-12-14T12:06:31.744Z,96.13
2022-12-14T12:09:30.738Z,89.00
2022-12-14T12:12:18.860Z,93.90
2022-12-14T12:15:05.690Z,97.30
2022-12-14T12:18:06.238Z,103.10
2022-12-14T12:21:01.008Z,103.20
2022-12-14T12:23:51.998Z,110.72
2022-12-14T12:26:42.921Z,115.53
2022-12-14T12:30:08.709Z,103.07
2022-12-14T12:32:57.935Z,106.50
2022-12-14T12:35:49.486Z,112.78
2022-12-14T12:38:54.152Z,111.78
2022-12-14T12:42:06.899Z,114.15
2022-12-14T12:44:58.877Z,245.32
2022-12-14T12:47:52.845Z,132.02
2022-12-14T12:50:49.891Z,105.32
2022-12-14T12:53:40.340Z,106.80
2022-12-14T12:56:38.092Z,111.13
2022-12-14T12:59:52.104Z,105.72
2022-12-14T13:02:49.971Z,105.00
2022-12-14T13:05:48.443Z,107.47
2022-12-14T13:08:39.352Z,111.55
2022-12-14T13:11:38.567Z,108.28
2022-12-14T13:14:41.217Z,122.57
2022-12-14T13:17:32.910Z,116.82
2022-12-14T13:20:37.342Z,109.78
2022-12-14T13:23:45.434Z,207.93
2022-12-14T13:26:58.526Z,272.50
2022-12-14T13:29:47.976Z,196.82
2022-12-14T13:32:51.111Z,185.35
2022-12-14T13:35:48.093Z,363.40
2022-12-14T13:39:06.367Z,161.40
2022-12-14T13:42:02.914Z,123.53
2022-12-14T13:45:00.500Z,119.45
2022-12-14T13:47:50.754Z,230.18
2022-12-14T13:50:43.384Z,120.85
2022-12-14T13:53:48.225Z,114.28
2022-12-14T13:56:40.244Z,102.15
2022-12-14T13:59:38.935Z,117.30
2022-12-14T14:02:31.281Z,107.35
2022-12-14T14:05:20.295Z,101.78
2022-12-14T14:08:33.304Z,110.45
2022-12-14T14:11:41.448Z,130.77
2022-12-14T14:14:45.734Z,154.82
2022-12-14T14:17:43.799Z,161.13
2022-12-14T14:20:43.677Z,151.05
2022-12-14T14:23:32.404Z,130.00
2022-12-14T14:26:18.503Z,123.63
2022-12-14T14:29:23.991Z,111.22
2022-12-14T14:32:31.704Z,126.00
2022-12-14T14:35:30.834Z,144.93
2022-12-14T14:38:30.161Z,135.27
2022-12-14T14:41:35.035Z,143.43
2022-12-14T14:44:44.069Z,136.30
2022-12-14T14:47:40.419Z,153.65
2022-12-14T14:50:34.629Z,150.30
2022-12-14T14:53:33.076Z,149.27
2022-12-14T14:56:39.986Z,153.88
2022-12-14T14:59:25.887Z,160.05
2022-12-14T15:02:30.862Z,156.43
2022-12-14T15:05:43.388Z,152.95
2022-12-14T15:08:37.642Z,162.25
2022-12-14T15:14:26.190Z,200.60
2022-12-14T15:17:20.933Z,202.32
2022-12-14T15:20:23.985Z,205.07
2022-12-14T15:23:13.481Z,220.93
2022-12-14T15:26:00.966Z,222.20
2022-12-14T15:28:48.943Z,236.85
2022-12-14T15:31:38.383Z,395.55
2022-12-14T15:34:24.755Z,218.07
2022-12-14T15:37:25.199Z,198.70
2022-12-14T15:40:22.457Z,196.07
2022-12-14T15:43:20.429Z,199.00
2022-12-14T15:46:16.624Z,198.82
2022-12-14T15:49:05.059Z,189.75
2022-12-14T15:51:51.525Z,168.32
2022-12-14T15:54:38.335Z,166.90
2022-12-14T15:57:24.544Z,156.60
2022-12-14T16:00:11.031Z,158.13
2022-12-14T16:02:57.399Z,184.80
2022-12-14T16:05:43.425Z,219.18
2022-12-14T16:08:30.999Z,181.13
2022-12-14T16:11:35.218Z,148.10
2022-12-14T16:14:30.341Z,159.50
2022-12-14T16:17:25.744Z,164.65
2022-12-14T16:20:14.719Z,199.18
2022-12-14T16:23:02.619Z,219.55
2022-12-14T16:25:58.780Z,183.02
2022-12-14T16:28:44.618Z,172.18
2022-12-14T16:31:34.634Z,214.27
2022-12-14T16:34:23.580Z,188.35
2022-12-14T16:37:32.140Z,182.27
2022-12-14T16:40:41.251Z,175.13
2022-12-14T16:43:31.572Z,177.07
2022-12-14T16:46:17.959Z,174.07
2022-12-14T16:49:22.363Z,181.82
2022-12-14T16:52:24.011Z,201.00
2022-12-14T16:55:14.367Z,210.98
2022-12-14T16:58:00.361Z,229.65
2022-12-14T17:00:59.224Z,376.00
2022-12-14T17:03:51.959Z,216.38
2022-12-14T17:06:55.465Z,212.80
2022-12-14T17:09:41.569Z,185.20
2022-12-14T17:12:27.718Z,184.27
2022-12-14T17:15:15.250Z,173.50
2022-12-14T17:18:03.986Z,165.52
2022-12-14T17:20:49.910Z,206.73
2022-12-14T17:23:38.185Z,200.20
2022-12-14T17:26:25.345Z,217.30
2022-12-14T17:29:19.079Z,235.00
2022-12-14T17:32:05.030Z,259.90
2022-12-14T17:34:50.957Z,263.25
2022-12-14T17:37:37.139Z,216.82
2022-12-14T17:40:23.668Z,218.45
2022-12-14T17:43:13.367Z,222.80
2022-12-14T17:46:03.373Z,223.73
2022-12-14T17:48:49.895Z,238.82
2022-12-14T17:51:41.805Z,235.55
2022-12-14T17:54:29.275Z,288.55
2022-12-14T17:57:21.077Z,286.13
2022-12-14T18:00:26.644Z,299.25
2022-12-14T18:03:14.482Z,294.50
2022-12-14T18:06:01.052Z,292.08
2022-12-14T18:08:48.874Z,305.70
2022-12-14T18:11:35.892Z,301.98
2022-12-14T18:14:23.114Z,283.20
2022-12-14T18:17:11.636Z,286.77
2022-12-14T18:19:57.690Z,262.13
2022-12-14T18:22:45.009Z,212.45
2022-12-14T18:25:39.211Z,198.48
2022-12-14T18:28:25.194Z,192.40
2022-12-14T18:31:28.749Z,198.52
2022-12-14T18:34:15.049Z,189.50
2022-12-14T18:37:01.073Z,214.07
2022-12-14T18:39:49.501Z,234.18
2022-12-14T18:42:35.805Z,245.52
2022-12-14T18:45:29.784Z,217.35
2022-12-14T18:48:16.149Z,224.02
2022-12-14T18:51:02.444Z,217.40
2022-12-14T18:53:48.256Z,213.30
2022-12-14T18:56:34.482Z,197.88
2022-12-14T18:59:20.321Z,204.50
2022-12-14T19:02:06.561Z,193.45
2022-12-14T19:04:55.330Z,196.95
2022-12-14T19:07:44.897Z,222.27
2022-12-14T19:10:32.087Z,193.82
2022-12-14T19:13:25.365Z,175.68
2022-12-14T19:16:12.643Z,185.40
2022-12-14T19:18:59.683Z,191.27
2022-12-14T19:21:45.686Z,177.25
2022-12-14T19:24:31.656Z,177.93
2022-12-14T19:27:35.680Z,170.48
2022-12-14T19:30:24.348Z,172.48
2022-12-14T19:33:10.729Z,162.23
2022-12-14T19:35:57.257Z,157.07
2022-12-14T19:38:43.246Z,178.30
2022-12-14T19:41:29.079Z,188.27
2022-12-14T19:44:15.204Z,190.85
2022-12-14T19:47:01.670Z,180.15
2022-12-14T19:49:47.508Z,196.23
2022-12-14T19:52:34.182Z,173.98
2022-12-14T19:55:20.011Z,182.15
2022-12-14T19:58:05.895Z,195.77
2022-12-14T20:00:52.394Z,220.63
2022-12-14T20:03:39.069Z,213.13
2022-12-14T20:06:25.219Z,212.00
2022-12-14T20:09:14.414Z,239.55
2022-12-14T20:12:00.302Z,247.40
2022-12-14T20:14:49.511Z,255.63
2022-12-14T20:17:35.593Z,248.77
2022-12-14T20:20:23.004Z,242.13
2022-12-14T20:23:09.341Z,243.88
2022-12-14T20:26:01.196Z,177.13
2022-12-14T20:28:52.252Z,229.98
2022-12-14T20:31:38.350Z,145.00
2022-12-14T20:34:24.503Z,114.90
2022-12-14T20:37:10.601Z,110.28
2022-12-14T20:39:56.441Z,87.70
2022-12-14T20:42:42.306Z,89.63
2022-12-14T20:45:28.360Z,90.00
2022-12-14T20:48:14.170Z,80.95
2022-12-14T20:51:02.085Z,64.28
2022-12-14T20:53:49.220Z,71.10
2022-12-14T20:56:36.233Z,58.22
2022-12-14T20:59:22.112Z,54.55
2022-12-14T21:02:16.114Z,52.03
2022-12-14T21:05:02.076Z,46.08
2022-12-14T21:07:48.087Z,48.72
2022-12-14T21:10:34.154Z,46.50
2022-12-14T21:13:20.223Z,47.78
2022-12-14T21:16:09.925Z,45.05
2022-12-14T21:18:55.679Z,46.63
2022-12-14T21:21:44.535Z,37.80
2022-12-14T21:27:40.607Z,43.17
2022-12-14T21:30:26.626Z,30.58
2022-12-14T21:33:12.435Z,33.00
2022-12-14T21:35:58.341Z,31.45
2022-12-14T21:38:44.257Z,27.92
2022-12-14T21:41:48.647Z,31.98
2022-12-14T21:44:34.984Z,58.55
2022-12-14T21:47:27.008Z,51.78
2022-12-14T21:50:12.747Z,50.97
2022-12-14T21:52:58.688Z,47.63
2022-12-14T21:55:49.642Z,49.08
2022-12-14T21:58:35.478Z,56.72
2022-12-14T22:01:21.596Z,48.60
2022-12-14T22:04:08.036Z,50.33
2022-12-14T22:06:54.270Z,39.45
2022-12-14T22:09:40.158Z,32.25
2022-12-14T22:12:26.306Z,36.38
2022-12-14T22:15:12.318Z,27.85
2022-12-14T22:17:58.466Z,22.92
2022-12-14T22:20:44.446Z,19.90
2022-12-14T22:23:34.143Z,16.00
2022-12-14T22:26:20.650Z,12.75
2022-12-14T22:29:07.753Z,10.32
2022-12-14T22:31:53.841Z,11.75
2022-12-14T22:34:39.974Z,11.20
2022-12-14T22:37:26.131Z,18.65
2022-12-14T22:40:12.478Z,16.00
2022-12-14T22:42:58.884Z,13.05
2022-12-14T22:45:45.283Z,13.93
2022-12-14T22:48:32.458Z,9.95
2022-12-14T22:51:18.957Z,10.05
2022-12-14T22:54:05.043Z,7.85
2022-12-14T22:57:00.945Z,11.52
2022-12-14T22:59:59.236Z,9.07
2022-12-14T23:02:48.142Z,11.70
2022-12-14T23:05:34.750Z,13.20
2022-12-14T23:08:20.734Z,13.85
2022-12-14T23:11:25.383Z,15.75
2022-12-14T23:14:29.991Z,18.38
2022-12-14T23:17:35.608Z,14.07
2022-12-14T23:20:40.205Z,18.67
2022-12-14T23:23:44.859Z,17.75
2022-12-14T23:26:53.191Z,23.98
2022-12-14T23:29:58.000Z,16.95
2022-12-14T23:33:02.379Z,19.73
2022-12-14T23:36:06.915Z,25.23
2022-12-14T23:39:11.490Z,24.13
2022-12-14T23:42:15.863Z,15.77
2022-12-14T23:45:20.314Z,16.40
2022-12-14T23:48:25.333Z,21.77
2022-12-14T23:51:29.684Z,14.23
2022-12-14T23:54:34.045Z,16.23
2022-12-14T23:57:38.709Z,14.52
